Flight Track Log - Related Links

Times and Time Zones

All times are in EDT time to prevent confusion due to time zone crossing. See the N45NS flight status page for this flight to view local times or setup timezone preferences in your user account.

Time Position Orientation Groundspeed Altitude Reporting Facility
EDT Latitude Longitude Course Direction KTS MPH feet Rate Location/Type
Thu 11:08:18 39.6308 -106.9506 90° East 198 228 7,800  Level Denver Center
Thu 11:09:22 39.5969 -107.0333 242° Southwest 240 276 11,800 3,435 Climbing Denver Center
Thu 11:10:22 39.6694 -107.0531 348° North 276 318 14,900 2,066 Climbing Denver Center
Thu 11:11:24 39.7603 -107.0625 355° North 370 426 16,000 1,536 Climbing Denver Center
Thu 11:12:00 40.0262 -106.2309 57° Northeast  Level FlightAware Approximate
Thu 11:12:27 39.8194 -106.9467 56° Northeast 391 450 18,100  Level Denver Center
Thu 11:13:00 40.0500 -106.0811 90° East  Level FlightAware Approximate
Thu 11:13:28 39.8658 -106.8167 65° Northeast 393 452 20,500  Level Denver Center
Thu 11:14:29 39.9142 -106.6867 64° Northeast 393 452 22,800 1,632 Climbing Denver Center
Thu 11:15:33 39.9700 -106.5347 64° Northeast 430 495 23,900 1,584 Climbing Denver Center
Thu 11:16:34 40.0175 -106.3775 68° East 431 496 26,100 1,920 Climbing Denver Center
Thu 11:17:38 40.0333 -106.2261 82° East 425 489 27,900 1,776 Climbing Denver Center
Thu 11:18:39 40.0556 -106.0753 79° East 425 489 29,800 1,854 Climbing Denver Center
Thu 11:19:41 40.0775 -105.9261 79° East 422 486 31,700 1,645 Climbing Denver Center
Thu 11:20:43 40.0964 -105.7775 81° East 416 479 33,200 1,707 Climbing Denver Center
Thu 11:21:44 40.1211 -105.5986 80° East 415 478 35,200 1,488 Climbing Denver Center
Thu 11:22:48 40.1408 -105.4525 80° East 411 473 36,300 1,065 Climbing Denver Center
Thu 11:23:48 40.1614 -105.3008 80° East 418 481 37,400 1,113 Climbing Denver Center
Thu 11:24:52 40.1814 -105.1517 80° East 418 481 38,600 1,056 Climbing Denver Center
Thu 11:25:53 40.1992 -105.0072 81° East 406 467 39,600 912 Climbing Denver Center
Thu 11:26:57 40.2186 -104.8625 80° East 405 466 40,500 677 Climbing Denver Center
Thu 11:27:57 40.2367 -104.7200 81° East 400 460 41,000 248 Climbing Denver Center
Thu 11:28:58 40.2592 -104.5442 80° East 401 461 41,000  Level Denver Center
Thu 11:30:02 40.2783 -104.3919 81° East 417 480 41,000  Level Denver Center
Thu 11:31:03 40.2986 -104.2339 80° East 432 497 41,000  Level Denver Center
Thu 11:32:07 40.3178 -104.0733 81° East 441 507 41,000  Level Denver Center
Thu 11:33:09 40.3381 -103.9097 81° East 452 520 41,000  Level Denver Center
Thu 11:34:09 40.3581 -103.7436 81° East 454 522 41,000  Level Denver Center
Thu 11:35:13 40.3822 -103.5422 81° East 465 535 41,000  Level Denver Center
Thu 11:36:13 40.4011 -103.3728 82° East 466 536 41,000  Level Denver Center
Thu 11:37:17 40.4203 -103.2058 81° East 466 536 41,000  Level Denver Center
Thu 11:38:18 40.4397 -103.0383 81° East 465 535 41,000  Level Denver Center
Thu 11:39:19 40.4592 -102.8714 81° East 465 535 41,000  Level Denver Center
Thu 11:40:23 40.4778 -102.7039 82° East 465 535 41,000  Level Denver Center
Thu 11:41:24 40.4969 -102.5214 82° East 465 535 41,000  Level Denver Center
Thu 11:42:28 40.5172 -102.3333 82° East 465 535 41,000  Level Denver Center
Thu 11:43:28 40.5344 -102.1714 82° East 466 536 41,000  Level Denver Center
Thu 11:44:32 40.5536 -101.9828 82° East 466 536 41,000  Level Denver Center
Thu 11:45:33 40.5706 -101.8217 82° East 466 536 41,000  Level Denver Center
Thu 11:46:35 40.5903 -101.6331 82° East 466 536 41,000  Level Denver Center
Thu 11:47:36 40.6067 -101.4728 82° East 466 536 41,000  Level Denver Center
Thu 11:48:40 40.6250 -101.2836 83° East 466 536 41,000  Level Denver Center
Thu 11:49:41 40.6406 -101.1231 83° East 466 536 41,000  Level Denver Center
Thu 11:50:44 40.6583 -100.9364 83° East 465 535 41,000  Level Denver Center
Thu 11:51:45 40.6733 -100.7764 83° East 465 535 41,000  Level Denver Center
Thu 11:52:46 40.6908 -100.5911 83° East 465 535 41,000  Level Denver Center
Thu 11:53:50 40.7056 -100.4317 83° East 465 535 41,000  Level Denver Center
Thu 11:54:51 40.7225 -100.2439 83° East 465 535 41,000  Level Denver Center
Thu 11:55:53 40.7361 -100.0811 84° East 466 536 41,000  Level Denver Center
Thu 11:56:55 40.7531 -99.8919 83° East 467 537 41,000  Level Denver Center
Thu 11:57:58 40.7664 -99.7308 84° East 467 537 41,000  Level Denver Center
Thu 11:59:11 40.7836 -99.5267 84° East 467 537 41,000  Level Denver Center
Thu 12:00:15 40.8011 -99.3211 84° East 469 540 41,000  Level Denver Center
Thu 12:01:16 40.8133 -99.1500 85° East 469 540 41,000  Level Denver Center
Thu 12:01:58 40.8231 -99.0339 84° East 469 540 41,000  Level Minneapolis Center
Thu 12:03:00 40.8353 -98.8622 85° East 469 540 41,000  Level Minneapolis Center
Thu 12:04:02 40.8483 -98.6897 84° East 469 540 41,000  Level Minneapolis Center
Thu 12:05:04 40.8617 -98.5161 84° East 472 543 41,000  Level Minneapolis Center
Thu 12:06:06 40.8753 -98.3292 84° East 472 543 41,000  Level Minneapolis Center
Thu 12:07:08 40.8872 -98.1569 85° East 472 543 41,000  Level Minneapolis Center
Thu 12:08:10 40.9025 -97.9503 84° East 473 544 41,000  Level Minneapolis Center
Thu 12:09:11 40.9114 -97.8111 85° East 473 544 41,000  Level Minneapolis Center
Thu 12:10:13 40.9242 -97.6036 85° East 473 544 41,000  Level Minneapolis Center
Thu 12:11:15 40.9358 -97.4297 85° East 473 544 41,000  Level Minneapolis Center
Thu 12:12:17 40.9458 -97.2711 85° East 473 544 41,000  Level Minneapolis Center
Thu 12:13:19 40.9581 -97.0636 85° East 473 544 41,000  Level Minneapolis Center
Thu 12:14:21 40.9686 -96.8908 85° East 473 544 41,000  Level Minneapolis Center
Thu 12:15:22 40.9783 -96.7186 86° East 473 544 41,000  Level Minneapolis Center
Thu 12:16:24 40.9889 -96.5458 85° East 473 544 41,000  Level Minneapolis Center
Thu 12:17:26 40.9992 -96.3733 85° East 473 544 41,000  Level Minneapolis Center
Thu 12:18:28 41.0081 -96.2014 86° East 473 544 41,000  Level Minneapolis Center
Thu 12:19:30 41.0178 -95.9942 86° East 473 544 41,000  Level Minneapolis Center
Thu 12:20:32 41.0264 -95.8225 86° East 473 544 41,000  Level Minneapolis Center
Thu 12:21:33 41.0356 -95.6514 86° East 473 544 41,000  Level Minneapolis Center
Thu 12:22:35 41.0431 -95.4786 87° East 473 544 41,000  Level Minneapolis Center
Thu 12:23:37 41.0517 -95.3067 86° East 473 544 41,000  Level Minneapolis Center
Thu 12:24:39 41.0603 -95.1003 87° East 473 544 41,000  Level Minneapolis Center
Thu 12:25:41 41.0669 -94.9292 87° East 471 542 41,000  Level Minneapolis Center
Thu 12:26:43 41.0744 -94.7586 87° East 470 541 41,000  Level Minneapolis Center
Thu 12:27:44 41.0803 -94.5878 87° East 469 540 41,000  Level Minneapolis Center
Thu 12:28:46 41.0864 -94.4222 87° East 468 539 41,000  Level Minneapolis Center
Thu 12:29:48 41.0925 -94.2544 87° East 463 533 41,000  Level Minneapolis Center
Thu 12:30:50 41.1006 -94.0497 87° East 463 533 41,000  Level Minneapolis Center
Thu 12:31:52 41.1067 -93.8811 87° East 463 533 41,000  Level Minneapolis Center
Thu 12:32:53 41.1119 -93.7131 88° East 463 533 41,000  Level Minneapolis Center
Thu 12:33:55 41.1153 -93.5453 88° East 461 531 41,000  Level Minneapolis Center
Thu 12:34:57 41.1217 -93.3781 87° East 460 529 41,000  Level Minneapolis Center
Thu 12:35:59 41.1264 -93.2094 88° East 460 529 41,000  Level Minneapolis Center
Thu 12:37:01 41.1317 -93.0056 88° East 460 529 41,000  Level Minneapolis Center
Thu 12:38:03 41.1364 -92.8369 88° East 460 529 41,000  Level Minneapolis Center
Thu 12:38:39 41.1381 -92.7342 89° East 459 528 41,000  Level Chicago Center
Thu 12:39:41 41.1408 -92.5633 89° East 463 533 41,000  Level Chicago Center
Thu 12:40:43 41.1458 -92.3917 88° East 466 536 41,000  Level Chicago Center
Thu 12:41:45 41.1481 -92.2225 89° East 462 532 41,000  Level Chicago Center
Thu 12:42:47 41.1508 -92.0514 89° East 465 535 41,000  Level Chicago Center
Thu 12:43:49 41.1544 -91.8456 89° East 467 537 41,000  Level Chicago Center
Thu 12:44:51 41.1569 -91.6750 89° East 465 535 41,000  Level Chicago Center
Thu 12:45:53 41.1600 -91.5125 89° East 468 539 41,000  Level Chicago Center
Thu 12:46:55 41.1606 -91.3386 90° East 470 541 41,000  Level Chicago Center
Thu 12:47:57 41.1633 -91.1286 89° East 474 545 41,000  Level Chicago Center
Thu 12:48:59 41.1658 -90.9542 89° East 474 545 41,000  Level Chicago Center
Thu 12:50:02 41.1675 -90.7772 89° East 476 548 41,000  Level Chicago Center
Thu 12:51:04 41.1672 -90.6022 90° East 477 549 41,000  Level Chicago Center
Thu 12:52:06 41.1683 -90.4247 89° East 479 551 41,000  Level Chicago Center
Thu 12:53:08 41.1683 -90.2469 90° East 480 552 41,000  Level Chicago Center
Thu 12:54:10 41.1683 -90.0700 90° East 477 549 41,000  Level Chicago Center
Thu 12:55:12 41.1675 -89.8547 90° East 483 556 41,000  Level Chicago Center
Thu 12:56:14 41.1675 -89.6767 90° East 480 552 41,000  Level Chicago Center
Thu 12:57:16 41.1672 -89.4981 90° East 480 552 41,000  Level Chicago Center
Thu 12:58:18 41.1653 -89.3183 91° East 483 556 41,000  Level Chicago Center
Thu 12:59:20 41.1644 -89.1281 90° East 481 554 41,000  Level Chicago Center
Thu 13:00:22 41.1619 -88.9503 91° East 483 556 41,000  Level Chicago Center
Thu 13:01:24 41.1600 -88.7731 91° East 483 556 41,000  Level Chicago Center
Thu 13:02:26 41.1583 -88.5958 91° East 484 557 41,000  Level Chicago Center
Thu 13:03:28 41.1564 -88.3831 91° East 485 558 41,000  Level Chicago Center
Thu 13:04:30 41.1536 -88.2058 91° East 486 559 41,000  Level Chicago Center
Thu 13:05:33 41.1511 -88.0300 91° East 486 559 41,000  Level Chicago Center
Thu 13:06:35 41.1472 -87.8514 92° East 489 563 41,000  Level Chicago Center
Thu 13:07:37 41.1433 -87.6719 92° East 492 566 41,000  Level Chicago Center
Thu 13:08:39 41.1394 -87.4561 91° East 490 564 41,000  Level Chicago Center
Thu 13:09:41 41.1344 -87.2758 92° East 491 565 41,000  Level Chicago Center
Thu 13:10:43 41.1294 -87.0961 92° East 490 564 41,000  Level Chicago Center
Thu 13:11:45 41.1244 -86.9147 92° East 493 567 41,000  Level Chicago Center
Thu 13:12:47 41.1197 -86.7247 92° East 490 564 41,000  Level Chicago Center
Thu 13:13:49 41.1144 -86.5431 92° East 492 566 41,000  Level Chicago Center
Thu 13:14:51 41.1083 -86.3639 93° East 491 565 41,000  Level Chicago Center
Thu 13:15:53 41.1011 -86.1486 92° East 490 564 41,000  Level Chicago Center
Thu 13:16:55 41.0944 -85.9703 93° East 488 562 41,000  Level Chicago Center
Thu 13:17:56 41.0883 -85.7922 93° East 488 562 41,000  Level Chicago Center
Thu 13:18:58 41.0814 -85.6167 93° East 483 556 41,000 -387 Level Chicago Center
Thu 13:20:00 41.0739 -85.4406 93° East 483 556 40,200 -1,694 Descending Chicago Center
Thu 13:21:02 41.0650 -85.2275 93° East 487 560 37,500 -2,661 Descending Chicago Center
Thu 13:22:04 41.0575 -85.0606 93° East 471 542 34,700 -2,661 Descending Chicago Center
Thu 13:23:06 41.0508 -84.8975 93° East 453 521 32,000 -1,790 Descending Chicago Center
Thu 13:24:08 41.0433 -84.7367 93° East 444 511 31,000 -484 Descending Chicago Center
Thu 13:25:10 41.0347 -84.5669 94° East 459 528 31,000 -145 Level Chicago Center
Thu 13:26:12 41.0272 -84.3906 93° East 478 550 30,700 -1,016 Descending Chicago Center
Thu 13:27:14 41.0164 -84.1828 94° East 474 545 28,900 -1,742 Descending Chicago Center
Thu 13:28:16 41.0067 -84.0081 94° East 476 548 27,100 -1,839 Descending Chicago Center
Thu 13:29:18 40.9981 -83.8356 94° East 474 545 25,100 -2,079 Descending Chicago Center
Thu 13:29:57 40.9914 -83.7142 94° East 463 533 23,600 -1,248 Descending Cleveland Center
Thu 13:30:59 40.9814 -83.5481 95° East 456 525 23,000 -339 Descending Cleveland Center
Thu 13:32:01 40.9717 -83.3825 94° East 453 521 22,900 -532 Descending Cleveland Center
Thu 13:33:03 40.9622 -83.2189 94° East 448 516 21,900 -1,500 Descending Cleveland Center
Thu 13:34:05 40.9514 -83.0414 95° East 444 511 19,800 -1,984 Descending Cleveland Center
Thu 13:35:07 40.9411 -82.8867 95° East 427 491 17,800 -1,839 Descending Cleveland Center
Thu 13:36:09 40.9086 -82.7389 106° East 415 478 16,000 -1,839 Descending Cleveland Center
Thu 13:37:11 40.8786 -82.5967 106° East 403 464 14,000 -1,824 Descending Cleveland Center
Thu 13:38:14 40.8544 -82.4592 103° East 386 444 12,200 -2,016 Descending Cleveland Center
Thu 13:39:16 40.8536 -82.3122 90° East 339 390 9,800 -2,177 Descending Cleveland Center
Thu 13:40:18 40.8594 -82.2036 86° East 302 348 7,700 -2,032 Descending Cleveland Center
Thu 13:41:20 40.8631 -82.1003 87° East 284 327 5,600 -2,032 Descending Cleveland Center
Thu 13:42:22 40.8650 -82.0003 88° East 278 320 3,500 -2,032 Descending Cleveland Center

Login

Don't have an account? Register now (free) for customized features, flight alerts, and more!